map of NAK home
NAK - Airport
Location
City:  Nakhon Ratchasima, Nakhon Ratchasima, Thailand
ICAO:VTUQ
IATA:NAK

Details
Type:Airport (Aerodrome, Airfield)
Latitude:14°56'58"N (14.949497)
Longitude:102°18'46"E (102.312736)
Datum:WGS 1984
Elevation:765 ft (233 m)
Variation:0.68°W (WMM2015 magnetic declination)
-0.00° annual change
Runways:1
Longest:6890 × 148 ft (2100 × 45 m), paved

Time
Time Zone:UTC+7
Local Time:

Weather
METAR:VTUQ 161800Z AUTO 04006KT 010V070 ////NDV ////// 22/17 Q1014 A2995
TAF:VTUQ 161700Z 1618/1718 03004KT 8000 NSC

Related Locations
Nearby:
Farthest:PIO: 12311 mi / 19813 km
Pisco [Capitán FAP Renán Elías Olivera Airport], ICA, PE

Find:

   beyond  
but within

Other Information
Maps:
NOTAMs:
Links:
Sources:

  
  • flag of Thailand
  

Sectional Chart

Flight Planning
at skyvector.com

Satellite Image

Google Maps Satellite view

 

Copyright © 2004-2019 Karl L. Swartz. All rights reserved.
The Great Circle Mapper name and logo are trademarks of the Great Circle Mapper.
All other trademarks mentioned herein belong to their respective owners.
Please see credits for attibutions and further copyright information.

  Follow gcmap on Facebook Follow gcmap on Twitter Follow gcmap on Google+ GCmap on LinkedIn

hCard Microformat

Geo Microformat